QFA2X KLAX-YSSY
Flight info
| Callsign | QFA2X |
|---|---|
| Flight time | N/A |
| Altitude | 36000 |
| Route | SUMMR2 DINTY DCT DUETS R576 DRAYK/N0489F380 R576 DENNS DCT CARRP DCT BARKR B580 BESTY/N0486F400 B580 VESUN/N0485F430 DCT SATNU DCT SOTKI G595 ATNAT DCT RIKNI N774 MARLN |
| Aircraft | A359/H-SDE2E3GHIJ3J4J5LM1ORWXY/LB1D1 |
Departure
| Time | 2026-05-04 19:42 |
|---|---|
| Airport | Los Angeles International Airport (KLAX) |
Arrival
| Time | N/A |
|---|---|
| Airport | Sydney Kingsford Smith International Airport (YSSY) |
| Time | Latitude | Longitude | Altitude | Speed | Heading |
|---|---|---|---|---|---|
| 2026-05-04 18:54 | 33.94021 | -118.41083 | 127 ft | 17 kts | 83° |
| 2026-05-04 19:28 | 33.94019 | -118.41099 | 127 ft | 2 kts | 78° |
| 2026-05-04 19:29 | 33.94014 | -118.41123 | 132 ft | 3 kts | 68° |
| 2026-05-04 19:29 | 33.94005 | -118.41144 | 128 ft | 3 kts | 57° |
| 2026-05-04 19:29 | 33.93993 | -118.41164 | 128 ft | 3 kts | 41° |
| 2026-05-04 19:29 | 33.93977 | -118.41176 | 128 ft | 3 kts | 14° |
| 2026-05-04 19:30 | 33.93966 | -118.41179 | 128 ft | 0 kts | 353° |
| 2026-05-04 19:35 | 33.93967 | -118.41179 | 132 ft | 1 kts | 353° |
| 2026-05-04 19:35 | 33.94002 | -118.41183 | 129 ft | 14 kts | 354° |
| 2026-05-04 19:35 | 33.94134 | -118.41201 | 126 ft | 20 kts | 353° |
| 2026-05-04 19:36 | 33.94254 | -118.41218 | 127 ft | 14 kts | 353° |
| 2026-05-04 19:36 | 33.94361 | -118.41234 | 125 ft | 17 kts | 353° |
| 2026-05-04 19:36 | 33.94469 | -118.41250 | 129 ft | 14 kts | 353° |
| 2026-05-04 19:36 | 33.94574 | -118.41267 | 130 ft | 19 kts | 352° |
| 2026-05-04 19:37 | 33.94723 | -118.41291 | 130 ft | 20 kts | 352° |
| 2026-05-04 19:37 | 33.94805 | -118.41204 | 122 ft | 16 kts | 84° |
| 2026-05-04 19:37 | 33.94817 | -118.41070 | 124 ft | 19 kts | 83° |
| 2026-05-04 19:37 | 33.94834 | -118.40887 | 124 ft | 26 kts | 84° |
| 2026-05-04 19:38 | 33.94857 | -118.40650 | 126 ft | 29 kts | 83° |
| 2026-05-04 19:38 | 33.94881 | -118.40434 | 130 ft | 25 kts | 82° |
| 2026-05-04 19:38 | 33.94903 | -118.40225 | 124 ft | 28 kts | 83° |
| 2026-05-04 19:38 | 33.94924 | -118.40020 | 132 ft | 20 kts | 83° |
| 2026-05-04 19:39 | 33.94940 | -118.39944 | 130 ft | 0 kts | 59° |
| 2026-05-04 19:40 | 33.94979 | -118.39914 | 124 ft | 19 kts | 15° |
| 2026-05-04 19:40 | 33.95037 | -118.39978 | 124 ft | 14 kts | 272° |
| 2026-05-04 19:40 | 33.95029 | -118.40076 | 128 ft | 8 kts | 262° |
| 2026-05-04 19:40 | 33.95025 | -118.40113 | 132 ft | 0 kts | 263° |
| 2026-05-04 19:41 | 33.95025 | -118.40120 | 132 ft | 6 kts | 263° |
| 2026-05-04 19:41 | 33.95000 | -118.40361 | 132 ft | 57 kts | 263° |
| 2026-05-04 19:41 | 33.94929 | -118.41058 | 127 ft | 108 kts | 263° |
| 2026-05-04 19:41 | 33.94818 | -118.42136 | 129 ft | 152 kts | 263° |
| 2026-05-04 19:42 | 33.94686 | -118.43417 | 668 ft | 152 kts | 262° |
| 2026-05-04 19:42 | 33.94546 | -118.44690 | 1313 ft | 154 kts | 263° |
| 2026-05-04 19:42 | 33.94406 | -118.46006 | 1744 ft | 166 kts | 263° |
| 2026-05-04 19:42 | 33.94291 | -118.47474 | 1996 ft | 186 kts | 267° |
| 2026-05-04 19:43 | 33.94259 | -118.49098 | 2369 ft | 200 kts | 269° |
| 2026-05-04 19:43 | 33.94238 | -118.50860 | 2626 ft | 221 kts | 269° |
| 2026-05-04 19:43 | 33.94150 | -118.52785 | 2950 ft | 237 kts | 265° |
| 2026-05-04 19:43 | 33.93993 | -118.54768 | 3597 ft | 241 kts | 266° |
| 2026-05-04 19:44 | 33.93827 | -118.56809 | 4162 ft | 245 kts | 265° |
| 2026-05-04 19:44 | 33.93663 | -118.58855 | 4847 ft | 249 kts | 266° |
| 2026-05-04 19:44 | 33.93499 | -118.60940 | 5480 ft | 250 kts | 266° |
| 2026-05-04 19:44 | 33.93336 | -118.63013 | 6258 ft | 249 kts | 266° |
| 2026-05-04 19:45 | 33.93171 | -118.65136 | 6819 ft | 256 kts | 266° |
| 2026-05-04 19:45 | 33.93010 | -118.67283 | 7524 ft | 258 kts | 266° |
| 2026-05-04 19:45 | 33.92841 | -118.69443 | 8253 ft | 261 kts | 266° |
| 2026-05-04 19:45 | 33.92728 | -118.70891 | 8726 ft | 262 kts | 265° |
| 2026-05-04 19:46 | 33.92554 | -118.73109 | 9506 ft | 263 kts | 265° |
| 2026-05-04 19:46 | 33.92326 | -118.76039 | 10365 ft | 270 kts | 265° |
| 2026-05-04 19:46 | 33.92205 | -118.77588 | 10583 ft | 281 kts | 265° |
| 2026-05-04 19:46 | 33.92017 | -118.80000 | 10868 ft | 298 kts | 265° |
| 2026-05-04 19:47 | 33.91828 | -118.82553 | 11143 ft | 314 kts | 266° |
| 2026-05-04 19:47 | 33.91807 | -118.85226 | 11424 ft | 330 kts | 271° |
| 2026-05-04 19:47 | 33.91886 | -118.88054 | 11704 ft | 345 kts | 272° |
| 2026-05-04 19:47 | 33.91979 | -118.90991 | 12091 ft | 356 kts | 271° |
| 2026-05-04 19:48 | 33.92072 | -118.93999 | 12621 ft | 361 kts | 271° |
| 2026-05-04 19:48 | 33.92163 | -118.97047 | 13179 ft | 366 kts | 271° |
| 2026-05-04 19:48 | 33.92346 | -119.00074 | 13735 ft | 370 kts | 278° |
| 2026-05-04 19:48 | 33.93113 | -119.03096 | 14267 ft | 377 kts | 294° |
| 2026-05-04 19:49 | 33.94405 | -119.05842 | 14793 ft | 382 kts | 299° |
| 2026-05-04 19:49 | 33.95837 | -119.08584 | 15348 ft | 384 kts | 299° |
| 2026-05-04 19:49 | 33.97267 | -119.11310 | 15914 ft | 386 kts | 299° |
| 2026-05-04 19:49 | 33.98699 | -119.14059 | 16467 ft | 389 kts | 298° |
| 2026-05-04 19:50 | 34.00197 | -119.16841 | 17038 ft | 393 kts | 302° |
| 2026-05-04 19:50 | 34.01997 | -119.19281 | 17591 ft | 403 kts | 314° |
| 2026-05-04 19:50 | 34.04234 | -119.21392 | 18073 ft | 410 kts | 320° |
| 2026-05-04 19:50 | 34.06576 | -119.23394 | 18551 ft | 414 kts | 320° |
| 2026-05-04 19:51 | 34.08945 | -119.25404 | 19051 ft | 416 kts | 320° |
| 2026-05-04 19:51 | 34.11307 | -119.27417 | 19558 ft | 417 kts | 319° |
| 2026-05-04 19:51 | 34.13680 | -119.29450 | 20035 ft | 420 kts | 319° |
| 2026-05-04 19:51 | 34.16067 | -119.31502 | 20492 ft | 423 kts | 318° |
| 2026-05-04 19:52 | 34.18471 | -119.33571 | 20992 ft | 425 kts | 318° |
| 2026-05-04 19:52 | 34.20886 | -119.35653 | 21485 ft | 428 kts | 317° |
| 2026-05-04 19:52 | 34.23323 | -119.37756 | 21954 ft | 431 kts | 317° |
| 2026-05-04 19:52 | 34.25734 | -119.39839 | 22421 ft | 434 kts | 317° |
| 2026-05-04 19:53 | 34.28229 | -119.41995 | 22926 ft | 436 kts | 316° |
| 2026-05-04 19:53 | 34.30700 | -119.44133 | 23431 ft | 439 kts | 316° |
| 2026-05-04 19:53 | 34.33204 | -119.46300 | 23861 ft | 442 kts | 315° |
| 2026-05-04 19:53 | 34.35661 | -119.48532 | 24198 ft | 441 kts | 311° |
| 2026-05-04 19:54 | 34.37834 | -119.51092 | 24539 ft | 433 kts | 302° |
| 2026-05-04 19:54 | 34.39601 | -119.54007 | 24950 ft | 424 kts | 293° |
| 2026-05-04 19:54 | 34.40939 | -119.57218 | 25206 ft | 420 kts | 284° |
| 2026-05-04 19:54 | 34.41791 | -119.60561 | 25612 ft | 413 kts | 276° |
| 2026-05-04 19:55 | 34.42191 | -119.63974 | 26040 ft | 406 kts | 268° |
| 2026-05-04 19:55 | 34.42146 | -119.67363 | 26473 ft | 401 kts | 259° |
| 2026-05-04 19:55 | 34.41675 | -119.70675 | 26893 ft | 397 kts | 252° |
| 2026-05-04 19:55 | 34.40828 | -119.73840 | 27290 ft | 396 kts | 248° |
| 2026-05-04 19:56 | 34.39951 | -119.77021 | 27724 ft | 399 kts | 250° |
| 2026-05-04 19:56 | 34.39362 | -119.80318 | 28119 ft | 405 kts | 257° |
| 2026-05-04 19:56 | 34.39046 | -119.83730 | 28494 ft | 409 kts | 259° |
| 2026-05-04 19:56 | 34.38792 | -119.87181 | 28797 ft | 412 kts | 259° |
| 2026-05-04 19:57 | 34.38547 | -119.90644 | 29164 ft | 414 kts | 259° |
| 2026-05-04 19:57 | 34.38300 | -119.94117 | 29519 ft | 415 kts | 259° |
| 2026-05-04 19:57 | 34.38049 | -119.97605 | 29874 ft | 416 kts | 259° |